Time;durP1;ratioP1;P1;durP2;ratioP2;P2;SDS_P1;SDS_P2;PMS_P1;PMS_P2;Temp;Humidity;BMP_temperature;BMP_pressure;BME280_temperature;BME280_humidity;BME280_pressure;Samples;Min_cycle;Max_cycle;Signal;HPM_P1;HPM_P2
2022/08/21 00:01:27;;;;;;;1999.90;999.90;;;15.50;99.90;;;;;;4971774;28;20030;-84
2022/08/21 00:03:52;;;;;;;1999.90;999.90;;;15.50;99.90;;;;;;4984263;28;20061;-84
2022/08/21 00:06:19;;;;;;;1999.90;999.90;;;15.50;99.90;;;;;;4990169;28;20030;-84
2022/08/21 00:08:45;;;;;;;1999.90;999.90;;;15.50;99.90;;;;;;4956542;28;20085;-84
2022/08/21 00:11:11;;;;;;;1999.90;999.90;;;15.50;99.90;;;;;;4987158;28;20039;-84
2022/08/21 00:13:37;;;;;;;1999.90;999.90;;;15.50;99.90;;;;;;4990114;28;20037;-84
2022/08/21 00:16:03;;;;;;;1999.90;999.90;;;15.40;99.90;;;;;;4988781;28;20046;-84
2022/08/21 00:18:29;;;;;;;1999.90;999.90;;;15.50;99.90;;;;;;4988940;28;20026;-84
2022/08/21 00:20:54;;;;;;;1999.90;999.90;;;15.50;99.90;;;;;;4990078;28;20393;-84
2022/08/21 00:23:21;;;;;;;1999.90;999.90;;;15.60;99.90;;;;;;4972585;28;20422;-82
2022/08/21 00:25:46;;;;;;;1999.90;999.90;;;15.50;99.90;;;;;;4989923;28;20583;-82
2022/08/21 00:28:13;;;;;;;1999.90;999.90;;;15.50;99.90;;;;;;4989801;28;20528;-83
2022/08/21 00:30:40;;;;;;;1999.90;999.90;;;15.50;99.90;;;;;;4971614;28;20053;-83
2022/08/21 00:33:06;;;;;;;1999.90;999.90;;;15.70;99.90;;;;;;4988039;28;20033;-83
2022/08/21 00:35:36;;;;;;;1999.90;999.90;;;15.60;99.90;;;;;;4989550;28;20100;-83
2022/08/21 00:38:04;;;;;;;1999.90;999.90;;;15.60;99.90;;;;;;4975460;28;20140;-83
2022/08/21 00:40:35;;;;;;;1999.90;999.90;;;15.70;99.90;;;;;;4972001;28;20486;-83
2022/08/21 00:43:03;;;;;;;1999.90;999.90;;;15.70;99.90;;;;;;4972726;28;20048;-83
2022/08/21 00:45:30;;;;;;;1999.90;999.90;;;15.60;99.90;;;;;;4989290;28;20045;-83
2022/08/21 00:47:56;;;;;;;1999.90;999.90;;;15.60;99.90;;;;;;4989860;28;20027;-83
2022/08/21 00:50:25;;;;;;;1999.90;999.90;;;15.60;99.90;;;;;;5015250;28;20034;-82
2022/08/21 00:52:52;;;;;;;1999.90;999.90;;;15.60;99.90;;;;;;5001964;28;20050;-83
2022/08/21 00:55:20;;;;;;;1999.90;999.90;;;15.60;99.90;;;;;;4992212;28;20058;-82
2022/08/21 00:57:50;;;;;;;1999.90;999.90;;;15.60;99.90;;;;;;4989766;28;20101;-83
2022/08/21 01:00:18;;;;;;;;;;;15.60;99.90;;;;;;4972736;28;20022;-82
2022/08/21 01:02:45;;;;;;;1999.90;999.90;;;15.60;99.90;;;;;;4990564;28;19910;-82
2022/08/21 01:05:12;;;;;;;1999.90;999.90;;;15.60;99.90;;;;;;4975765;28;20085;-82
2022/08/21 01:07:38;;;;;;;1999.90;999.90;;;15.60;99.90;;;;;;4993093;28;20033;-82
2022/08/21 01:10:06;;;;;;;1999.90;999.90;;;15.60;99.90;;;;;;4990406;28;20418;-83
2022/08/21 01:12:32;;;;;;;1999.90;999.90;;;15.60;99.90;;;;;;4992962;28;20033;-83
2022/08/21 01:14:58;;;;;;;1999.90;999.90;;;15.60;99.90;;;;;;4991599;28;20031;-82
2022/08/21 01:17:26;;;;;;;1999.90;999.90;;;15.70;99.90;;;;;;4993220;28;20069;-83
2022/08/21 01:19:52;;;;;;;1999.90;999.90;;;15.60;99.90;;;;;;4975026;28;20027;-83
2022/08/21 01:22:19;;;;;;;1999.90;999.90;;;15.60;99.90;;;;;;4993070;28;20038;-82
2022/08/21 01:24:45;;;;;;;1999.90;999.90;;;15.60;99.90;;;;;;4959267;28;20088;-83
2022/08/21 01:27:10;;;;;;;1999.90;999.90;;;15.50;99.90;;;;;;4975294;28;20121;-83
2022/08/21 01:29:42;;;;;;;1999.90;999.90;;;15.50;99.90;;;;;;4992598;28;20486;-83
2022/08/21 01:32:12;;;;;;;1999.90;999.90;;;15.40;99.90;;;;;;4992353;28;20069;-83
2022/08/21 01:34:42;;;;;;;1999.90;999.90;;;15.40;99.90;;;;;;4992667;28;20030;-82
2022/08/21 01:37:09;;;;;;;1999.90;999.90;;;15.40;99.90;;;;;;4975197;28;20084;-83
2022/08/21 01:39:35;;;;;;;1999.90;999.90;;;15.30;99.90;;;;;;4992410;28;20494;-83
2022/08/21 01:42:01;;;;;;;1999.90;999.90;;;15.20;99.90;;;;;;4992602;28;20062;-83
2022/08/21 01:44:27;;;;;;;1999.90;999.90;;;15.10;99.90;;;;;;4988464;28;20054;-82
2022/08/21 01:46:55;;;;;;;1999.90;999.90;;;15.10;99.90;;;;;;4979656;28;20117;-83
2022/08/21 01:49:21;;;;;;;1999.90;999.90;;;15.10;99.90;;;;;;4991402;28;20109;-83
2022/08/21 01:51:47;;;;;;;1999.90;999.90;;;15.10;99.90;;;;;;4973744;28;20129;-83
2022/08/21 01:54:13;;;;;;;1999.90;999.90;;;15.10;99.90;;;;;;4975050;28;20101;-84
2022/08/21 01:56:44;;;;;;;1999.90;999.90;;;15.10;99.90;;;;;;4974562;28;20042;-82
2022/08/21 01:59:10;;;;;;;1999.90;999.90;;;15.10;99.90;;;;;;4974735;28;20026;-83
2022/08/21 02:01:37;;;;;;;1999.90;999.90;;;15.10;99.90;;;;;;4990319;28;20048;-83
2022/08/21 02:04:03;;;;;;;1999.90;999.90;;;15.10;99.90;;;;;;4974696;28;20062;-84
2022/08/21 02:06:28;;;;;;;1999.90;999.90;;;15.10;99.90;;;;;;4990490;28;20026;-83
2022/08/21 02:08:54;;;;;;;1999.90;999.90;;;15.00;99.90;;;;;;4984936;28;20034;-82
2022/08/21 02:11:20;;;;;;;1999.90;999.90;;;15.00;99.90;;;;;;4991625;28;20060;-84
2022/08/21 02:13:46;;;;;;;1999.90;999.90;;;15.00;99.90;;;;;;4973579;28;20056;-82
2022/08/21 02:16:12;;;;;;;1999.90;999.90;;;15.00;99.90;;;;;;4974441;28;20030;-82
2022/08/21 02:18:38;;;;;;;1999.90;999.90;;;15.00;99.90;;;;;;4991992;28;20078;-83
2022/08/21 02:21:05;;;;;;;1999.90;999.90;;;14.90;99.90;;;;;;4987767;28;20034;-83
2022/08/21 02:23:31;;;;;;;1999.90;999.90;;;14.90;99.90;;;;;;4991859;28;20093;-84
2022/08/21 02:25:58;;;;;;;1999.90;999.90;;;14.90;99.90;;;;;;4990390;28;20031;-83
2022/08/21 02:28:24;;;;;;;1999.90;999.90;;;15.00;99.90;;;;;;4990091;28;20137;-83
2022/08/21 02:30:51;;;;;;;1999.90;999.90;;;15.00;99.90;;;;;;4991291;28;20105;-83
2022/08/21 02:33:17;;;;;;;1999.90;999.90;;;15.00;99.90;;;;;;4991617;28;20034;-83
2022/08/21 02:35:44;;;;;;;1999.90;999.90;;;15.10;99.90;;;;;;4991888;28;20092;-83
2022/08/21 02:38:14;;;;;;;1999.90;999.90;;;15.00;99.90;;;;;;4974084;28;20095;-83
2022/08/21 02:40:42;;;;;;;1603.13;811.13;;;15.00;99.90;;;;;;4991042;28;20390;-84
2022/08/21 02:43:08;;;;;;;1999.90;999.90;;;14.90;99.90;;;;;;4984377;28;20274;-84
2022/08/21 02:45:35;;;;;;;1999.90;999.90;;;14.90;99.90;;;;;;4973960;28;20041;-84
2022/08/21 02:48:04;;;;;;;1999.90;999.90;;;14.90;99.90;;;;;;4991445;28;20034;-84
2022/08/21 02:50:43;;;;;;;1999.90;999.90;;;14.90;99.90;;;;;;4973802;28;20446;-83
2022/08/21 02:53:10;;;;;;;1999.90;999.90;;;14.90;99.90;;;;;;4989378;28;20034;-84
2022/08/21 02:55:37;;;;;;;1999.90;999.90;;;14.80;99.90;;;;;;4991407;28;20035;-84
2022/08/21 02:58:07;;;;;;;1999.90;999.90;;;14.70;99.90;;;;;;4989464;28;20046;-83
2022/08/21 03:00:34;;;;;;;1999.90;999.90;;;14.80;99.90;;;;;;4957308;28;20065;-84
2022/08/21 03:03:00;;;;;;;1999.90;999.90;;;14.70;99.90;;;;;;4974080;28;20113;-85
2022/08/21 03:05:27;;;;;;;1999.90;999.90;;;14.70;99.90;;;;;;4975503;28;20137;-85
2022/08/21 03:07:53;;;;;;;1999.90;999.90;;;14.70;99.90;;;;;;5012899;28;20019;-83
2022/08/21 03:10:21;;;;;;;1999.90;999.90;;;14.70;99.90;;;;;;4997412;28;20539;-83
2022/08/21 03:12:47;;;;;;;1999.90;999.90;;;14.70;99.90;;;;;;4991614;28;20030;-83
2022/08/21 03:15:16;;;;;;;1999.90;999.90;;;14.80;99.90;;;;;;4973879;28;20516;-84
2022/08/21 03:17:43;;;;;;;1999.90;999.90;;;14.70;99.90;;;;;;4990549;28;20030;-83
2022/08/21 03:20:10;;;;;;;1999.90;999.90;;;14.80;99.90;;;;;;4991653;28;20029;-84
2022/08/21 03:22:36;;;;;;;1999.90;999.90;;;14.90;99.90;;;;;;4991029;28;20022;-83
2022/08/21 03:25:03;;;;;;;1999.90;999.90;;;14.80;99.90;;;;;;4972384;28;20036;-83
2022/08/21 03:27:30;;;;;;;1999.90;999.90;;;14.90;99.90;;;;;;4973041;28;20490;-84
2022/08/21 03:29:57;;;;;;;1999.90;999.90;;;14.90;99.90;;;;;;4990910;28;20485;-82
2022/08/21 03:32:22;;;;;;;1999.90;999.90;;;15.00;99.90;;;;;;4972969;28;20038;-83
2022/08/21 03:34:48;;;;;;;1999.90;999.90;;;15.00;99.90;;;;;;4990830;28;20097;-83
2022/08/21 03:37:15;;;;;;;1999.90;999.90;;;14.90;99.90;;;;;;4972937;28;20109;-83
2022/08/21 03:39:41;;;;;;;1999.90;999.90;;;15.00;99.90;;;;;;4990368;28;20037;-83
2022/08/21 03:42:08;;;;;;;1999.90;999.90;;;15.00;99.90;;;;;;4990117;28;20113;-84
2022/08/21 03:44:34;;;;;;;1999.90;999.90;;;15.00;99.90;;;;;;4956864;28;20030;-83
2022/08/21 03:47:01;;;;;;;1999.90;999.90;;;15.00;99.90;;;;;;4973250;28;20419;-84
2022/08/21 03:49:27;;;;;;;1999.90;999.90;;;15.00;99.90;;;;;;4988821;28;20105;-83
2022/08/21 03:51:53;;;;;;;1999.90;999.90;;;15.10;99.90;;;;;;4990445;28;20057;-84
2022/08/21 03:54:19;;;;;;;1999.90;999.90;;;15.10;99.90;;;;;;4987689;28;20066;-83
2022/08/21 03:56:44;;;;;;;1999.90;999.90;;;15.20;99.90;;;;;;4956340;28;20540;-83
2022/08/21 03:59:10;;;;;;;1999.90;999.90;;;15.10;99.90;;;;;;4990583;28;20109;-84
2022/08/21 04:01:36;;;;;;;1999.90;999.90;;;15.10;99.90;;;;;;4971085;28;20516;-83
2022/08/21 04:04:03;;;;;;;1999.90;999.90;;;15.00;99.90;;;;;;4990094;28;20061;-84
2022/08/21 04:06:28;;;;;;;1999.90;999.90;;;15.00;99.90;;;;;;4989449;28;20032;-84
2022/08/21 04:08:54;;;;;;;1999.90;999.90;;;14.90;99.90;;;;;;4972316;28;20034;-83
2022/08/21 04:11:20;;;;;;;1999.90;999.90;;;14.80;99.90;;;;;;4989546;28;20513;-84
2022/08/21 04:13:47;;;;;;;1999.90;999.90;;;14.80;99.90;;;;;;4989890;28;20022;-84
2022/08/21 04:16:14;;;;;;;1762.47;880.10;;;14.80;99.90;;;;;;4989793;28;20045;-84
2022/08/21 04:18:40;;;;;;;1999.90;999.90;;;14.80;99.90;;;;;;4989984;28;20109;-84
2022/08/21 04:21:08;;;;;;;1999.90;999.90;;;14.80;99.90;;;;;;4989389;28;20117;-83
2022/08/21 04:23:33;;;;;;;1999.90;999.90;;;14.70;99.90;;;;;;4990685;28;20514;-84
2022/08/21 04:25:59;;;;;;;1999.90;999.90;;;14.70;99.90;;;;;;4972178;28;20030;-83
2022/08/21 04:28:27;;;;;;;1999.90;999.90;;;14.70;99.90;;;;;;4988475;28;20034;-83
2022/08/21 04:30:53;;;;;;;1999.90;999.90;;;14.70;99.90;;;;;;4987708;28;20035;-83
2022/08/21 04:33:19;;;;;;;1999.90;999.90;;;14.70;99.90;;;;;;4989656;28;20557;-83
2022/08/21 04:35:45;;;;;;;1999.90;999.90;;;14.70;99.90;;;;;;4958372;28;20851;-84
2022/08/21 04:38:11;;;;;;;1999.90;999.90;;;14.70;99.90;;;;;;4996289;28;20109;-83
2022/08/21 04:40:37;;;;;;;1999.90;999.90;;;14.60;99.90;;;;;;4962265;28;20030;-83
2022/08/21 04:43:07;;;;;;;1999.90;999.90;;;14.60;99.90;;;;;;4993255;28;20045;-83
2022/08/21 04:45:39;;;;;;;1999.90;999.90;;;14.60;99.90;;;;;;4996317;28;20048;-83
2022/08/21 04:48:07;;;;;;;1999.90;999.90;;;14.60;99.90;;;;;;4996208;28;20110;-84
2022/08/21 04:50:38;;;;;;;1999.90;999.90;;;14.70;99.90;;;;;;4995668;28;20036;-83
2022/08/21 04:53:11;;;;;;;1804.25;845.00;;;14.60;99.90;;;;;;4996318;28;20083;-83
2022/08/21 04:55:37;;;;;;;1729.68;933.97;;;14.70;99.90;;;;;;4978717;28;20057;-83
2022/08/21 04:58:05;;;;;;;1999.90;999.90;;;14.70;99.90;;;;;;4995573;28;20057;-83
2022/08/21 05:00:31;;;;;;;1372.63;860.33;;;14.80;99.90;;;;;;4995104;28;20097;-82
2022/08/21 05:02:58;;;;;;;1777.65;963.65;;;14.80;99.90;;;;;;4974317;28;20187;-84
2022/08/21 05:05:24;;;;;;;1999.90;999.90;;;14.80;99.90;;;;;;4979314;28;20081;-84
2022/08/21 05:07:52;;;;;;;1489.75;912.10;;;14.80;99.90;;;;;;4995389;28;20030;-83
2022/08/21 05:10:18;;;;;;;1999.90;999.90;;;14.90;99.90;;;;;;4994389;28;20030;-83
2022/08/21 05:12:44;;;;;;;1691.70;928.78;;;14.90;99.90;;;;;;4988158;28;20042;-83
2022/08/21 05:15:12;;;;;;;1999.90;999.90;;;14.90;99.90;;;;;;4995019;28;20494;-83
2022/08/21 05:17:38;;;;;;;1999.90;999.90;;;14.90;99.90;;;;;;4994604;28;20026;-83
2022/08/21 05:20:04;;;;;;;1999.90;999.90;;;15.00;99.90;;;;;;4979207;28;20030;-83
2022/08/21 05:22:30;;;;;;;1653.65;885.30;;;15.10;99.90;;;;;;4996272;28;20136;-83
2022/08/21 05:24:57;;;;;;;1810.65;848.72;;;15.20;99.90;;;;;;4976644;28;20054;-83
2022/08/21 05:27:22;;;;;;;1440.55;829.75;;;15.20;99.90;;;;;;4996728;28;20046;-83
2022/08/21 05:29:49;;;;;;;1999.90;999.90;;;15.10;99.90;;;;;;4998336;28;20450;-82
2022/08/21 05:32:15;;;;;;;1644.45;916.67;;;15.10;99.90;;;;;;5010973;28;20050;-83
2022/08/21 05:34:41;;;;;;;1999.90;999.90;;;15.10;99.90;;;;;;4979538;28;20026;-82
2022/08/21 05:37:09;;;;;;;1572.13;892.92;;;15.20;99.90;;;;;;4978690;28;20030;-82
2022/08/21 05:39:35;;;;;;;1659.40;932.83;;;15.20;99.90;;;;;;4995681;28;20037;-83
2022/08/21 05:42:01;;;;;;;1926.68;976.10;;;15.20;99.90;;;;;;4978114;28;20034;-83
2022/08/21 05:44:26;;;;;;;1999.90;999.90;;;15.30;99.90;;;;;;4978102;28;20030;-82
2022/08/21 05:46:52;;;;;;;1881.93;989.45;;;15.40;99.90;;;;;;4994033;28;20085;-83
2022/08/21 05:49:18;;;;;;;1623.57;924.75;;;15.50;99.90;;;;;;4975347;28;20062;-81
2022/08/21 05:51:45;;;;;;;1667.03;943.53;;;15.50;99.90;;;;;;4993194;28;20034;-82
2022/08/21 05:54:11;;;;;;;1669.10;973.47;;;15.40;99.90;;;;;;4978964;28;20421;-83
2022/08/21 05:56:37;;;;;;;1672.30;945.55;;;15.50;99.90;;;;;;4995948;28;20042;-83
2022/08/21 05:59:03;;;;;;;1999.90;999.90;;;15.40;99.90;;;;;;4994978;28;20049;-82
2022/08/21 06:01:28;;;;;;;1589.88;937.00;;;15.40;99.90;;;;;;4971902;28;20046;-82
2022/08/21 06:03:54;;;;;;;1455.28;878.47;;;15.50;99.90;;;;;;4992163;28;20477;-82
2022/08/21 06:06:19;;;;;;;1560.22;953.25;;;15.50;99.90;;;;;;4992183;28;20034;-83
2022/08/21 06:08:45;;;;;;;1360.90;968.22;;;15.40;99.90;;;;;;4989993;28;20081;-82
2022/08/21 06:11:11;;;;;;;1693.32;953.55;;;15.50;99.90;;;;;;4991826;28;20037;-83
2022/08/21 06:13:38;;;;;;;1543.72;947.17;;;15.70;99.90;;;;;;4974730;28;20410;-82
2022/08/21 06:16:13;;;;;;;1695.18;978.63;;;15.90;99.90;;;;;;4990819;28;20037;-82
2022/08/21 06:18:39;;;;;;;1689.10;985.28;;;16.00;99.90;;;;;;4991179;28;20022;-82
2022/08/21 06:21:06;;;;;;;1703.68;941.55;;;16.00;99.90;;;;;;4989004;28;20034;-82
2022/08/21 06:23:33;;;;;;;1782.20;984.42;;;16.00;99.90;;;;;;4990582;28;20406;-82
2022/08/21 06:25:58;;;;;;;1688.90;808.22;;;16.00;99.90;;;;;;4992044;28;20027;-82
2022/08/21 06:28:24;;;;;;;1830.25;983.47;;;15.90;99.90;;;;;;4974198;28;20105;-82
2022/08/21 06:30:50;;;;;;;1713.13;987.05;;;15.90;99.90;;;;;;4990895;28;20046;-82
2022/08/21 06:33:16;;;;;;;1673.55;997.03;;;16.00;99.90;;;;;;4987926;28;20067;-82
2022/08/21 06:35:41;;;;;;;1541.70;927.97;;;16.10;99.90;;;;;;4993486;28;20030;-82
2022/08/21 06:38:07;;;;;;;1999.90;999.90;;;16.10;99.90;;;;;;4990459;28;20037;-82
2022/08/21 06:40:33;;;;;;;1999.90;999.90;;;16.30;99.90;;;;;;4973828;28;20030;-81
2022/08/21 06:43:06;;;;;;;1504.50;999.90;;;16.40;99.90;;;;;;4974254;28;20061;-82
2022/08/21 06:45:32;;;;;;;1392.68;969.22;;;16.40;99.90;;;;;;4986796;28;20313;-82
2022/08/21 06:47:58;;;;;;;1999.90;999.90;;;16.40;99.90;;;;;;4991657;28;20498;-82
2022/08/21 06:50:24;;;;;;;1999.90;999.90;;;16.70;99.90;;;;;;4991031;28;20714;-82
2022/08/21 06:52:57;;;;;;;1779.47;880.42;;;17.10;99.90;;;;;;4973295;28;20054;-82
2022/08/21 06:55:23;;;;;;;1773.70;999.90;;;17.10;99.90;;;;;;4972848;28;20093;-82
2022/08/21 06:57:48;;;;;;;1712.55;994.05;;;17.20;99.90;;;;;;4973440;28;20054;-82
2022/08/21 07:00:14;;;;;;;1821.25;999.28;;;17.20;99.90;;;;;;4991232;28;20049;-82
2022/08/21 07:02:41;;;;;;;1768.10;999.90;;;17.10;99.90;;;;;;4991493;28;20498;-82
2022/08/21 07:05:07;;;;;;;1670.93;968.85;;;17.00;99.90;;;;;;4990843;28;20053;-83
2022/08/21 07:07:33;;;;;;;1999.90;986.95;;;17.00;99.90;;;;;;4973255;28;20478;-82
2022/08/21 07:09:59;;;;;;;1687.82;999.90;;;17.10;99.90;;;;;;4989562;28;20088;-82
2022/08/21 07:12:25;;;;;;;1666.68;997.67;;;17.30;99.90;;;;;;4990724;28;20038;-82
2022/08/21 07:14:51;;;;;;;1999.90;999.90;;;17.40;99.90;;;;;;4991165;28;20110;-82
2022/08/21 07:17:17;;;;;;;1719.90;999.90;;;17.50;99.90;;;;;;4973320;28;20189;-82
2022/08/21 07:19:43;;;;;;;1886.97;999.90;;;17.70;99.90;;;;;;4990864;28;20654;-82
2022/08/21 07:22:08;;;;;;;1702.07;979.83;;;17.60;99.90;;;;;;4973365;28;20045;-83
2022/08/21 07:24:34;;;;;;;1699.50;997.28;;;17.60;99.90;;;;;;4973364;28;20065;-82
2022/08/21 07:27:00;;;;;;;1609.75;980.97;;;17.70;99.90;;;;;;4973519;28;20034;-82
2022/08/21 07:29:25;;;;;;;794.20;726.90;;;17.60;99.90;;;;;;4991132;28;20062;-82
2022/08/21 07:31:51;;;;;;;1070.68;934.45;;;17.30;99.90;;;;;;4990453;28;20034;-82
2022/08/21 07:34:17;;;;;;;1371.93;984.33;;;17.30;99.90;;;;;;4956918;28;20031;-82
2022/08/21 07:36:42;;;;;;;751.10;696.50;;;17.30;99.90;;;;;;4991282;28;20030;-82
2022/08/21 07:39:08;;;;;;;1417.50;964.85;;;17.10;99.90;;;;;;4972995;28;20030;-82
2022/08/21 07:41:35;;;;;;;1802.43;999.90;;;17.30;99.90;;;;;;4990652;28;20026;-82
2022/08/21 07:44:01;;;;;;;903.05;822.15;;;17.50;99.90;;;;;;4956894;28;20443;-83
2022/08/21 07:46:26;;;;;;;1010.80;902.22;;;17.40;99.90;;;;;;4972764;28;20027;-82
2022/08/21 07:48:52;;;;;;;1999.90;999.90;;;17.30;99.90;;;;;;4990128;28;20050;-82
2022/08/21 07:51:21;;;;;;;1999.90;973.45;;;17.50;99.90;;;;;;4972786;28;20038;-83
2022/08/21 07:53:52;;;;;;;1999.90;999.90;;;17.70;99.90;;;;;;4977119;28;20034;-81
2022/08/21 07:56:18;;;;;;;;;;;17.70;99.90;;;;;;4995547;28;20097;-82
2022/08/21 07:58:43;;;;;;;1021.25;920.40;;;17.80;99.90;;;;;;4963956;28;20326;-82
2022/08/21 08:01:09;;;;;;;1206.38;981.72;;;17.90;99.90;;;;;;4988767;28;20069;-83
2022/08/21 08:03:36;;;;;;;1966.82;921.50;;;18.00;99.90;;;;;;4992089;28;20033;-82
2022/08/21 08:06:04;;;;;;;1430.05;999.22;;;18.10;99.90;;;;;;4987817;28;20490;-83
2022/08/21 08:08:30;;;;;;;1770.28;999.90;;;18.20;99.90;;;;;;4973801;28;20129;-87
2022/08/21 08:10:57;;;;;;;1351.75;989.83;;;18.30;99.90;;;;;;4990002;28;20109;-82
2022/08/21 08:13:23;;;;;;;1196.82;964.97;;;18.40;99.90;;;;;;4972770;28;20043;-82
2022/08/21 08:15:49;;;;;;;1406.32;996.90;;;18.40;99.90;;;;;;4990124;28;20378;-82
2022/08/21 08:18:14;;;;;;;1144.65;953.20;;;18.70;99.90;;;;;;4990219;28;20084;-82
2022/08/21 08:20:40;;;;;;;1831.15;999.90;;;18.60;99.90;;;;;;4956461;28;20030;-82
2022/08/21 08:23:09;;;;;;;1910.63;999.90;;;18.70;99.90;;;;;;4989795;28;20162;-82
2022/08/21 08:25:35;;;;;;;1792.47;995.78;;;18.90;99.90;;;;;;4971288;28;20037;-81
2022/08/21 08:28:00;;;;;;;762.72;705.20;;;19.00;99.90;;;;;;4956594;28;20034;-82
2022/08/21 08:30:26;;;;;;;1167.40;931.17;;;18.90;99.90;;;;;;4970371;28;20100;-83
2022/08/21 08:32:52;;;;;;;1881.45;930.42;;;19.20;99.90;;;;;;4989821;28;20115;-82
2022/08/21 08:35:17;;;;;;;978.53;872.90;;;19.20;99.90;;;;;;4972285;28;20027;-82
2022/08/21 08:37:45;;;;;;;1423.80;974.58;;;19.40;99.90;;;;;;4989606;28;20039;-82
2022/08/21 08:40:20;;;;;;;891.80;810.15;;;19.50;99.90;;;;;;4988295;28;20088;-83
2022/08/21 08:42:47;;;;;;;517.25;489.35;;;19.30;99.90;;;;;;4987439;28;20034;-83
2022/08/21 08:45:17;;;;;;;411.83;392.67;;;19.30;99.90;;;;;;4972089;28;20026;-82
2022/08/21 08:47:46;;;;;;;;;;;19.30;99.90;;;;;;4972324;28;20038;-83
2022/08/21 08:50:38;;;;;;;244.80;235.30;;;19.10;99.90;;;;;;4982261;28;20004;-83
2022/08/21 08:53:21;;;;;;;210.02;201.82;;;19.00;99.90;;;;;;4987315;28;20490;-84
2022/08/21 08:55:51;;;;;;;92.32;88.53;;;19.30;99.90;;;;;;4984370;28;20034;-84
2022/08/21 08:58:23;;;;;;;222.07;212.95;;;19.20;99.90;;;;;;4989799;28;20048;-85
2022/08/21 09:00:51;;;;;;;72.97;69.95;;;19.20;99.90;;;;;;4989115;28;20042;-84
2022/08/21 09:03:16;;;;;;;39.25;37.30;;;19.10;99.90;;;;;;4988561;28;20129;-85
2022/08/21 09:05:55;;;;;;;44.22;42.28;;;19.10;99.90;;;;;;4972740;28;20824;-84
2022/08/21 09:08:27;;;;;;;30.75;28.95;;;18.90;99.90;;;;;;4989415;28;20033;-84
2022/08/21 09:11:05;;;;;;;26.05;24.75;;;18.90;99.90;;;;;;4983419;28;20490;-84
2022/08/21 09:13:50;;;;;;;23.20;21.95;;;18.90;99.90;;;;;;4989662;28;20031;-84
2022/08/21 09:16:40;;;;;;;24.33;23.08;;;18.90;99.90;;;;;;4970953;28;20036;-84
2022/08/21 09:19:14;;;;;;;30.30;28.63;;;19.10;99.90;;;;;;4989089;28;20026;-84
2022/08/21 09:21:49;;;;;;;56.95;54.55;;;19.30;99.90;;;;;;4985034;28;20080;-84
2022/08/21 09:24:34;;;;;;;80.35;76.65;;;19.60;99.90;;;;;;4993706;28;20113;-84
2022/08/21 09:27:08;;;;;;;14.25;12.63;;;19.30;99.90;;;;;;4975713;28;20030;-83
2022/08/21 09:29:37;;;;;;;12.00;10.43;;;19.30;99.90;;;;;;4989991;28;20037;-84
2022/08/21 09:32:20;;;;;;;20.10;18.97;;;19.10;99.90;;;;;;4971192;28;20030;-84
2022/08/21 09:35:06;;;;;;;20.73;19.52;;;19.30;99.90;;;;;;4974191;28;20034;-84
2022/08/21 09:37:35;;;;;;;13.18;12.13;;;19.10;99.90;;;;;;4990710;28;20520;-83
2022/08/21 09:40:14;;;;;;;11.30;10.55;;;19.20;99.90;;;;;;4993259;28;20062;-84
2022/08/21 09:42:40;;;;;;;10.38;9.43;;;19.30;99.90;;;;;;5000720;28;20026;-84
2022/08/21 09:45:16;;;;;;;13.52;12.73;;;18.90;99.90;;;;;;4993036;28;20030;-84
2022/08/21 09:47:43;;;;;;;10.93;10.02;;;19.20;99.90;;;;;;5005210;28;20029;-84
2022/08/21 09:50:17;;;;;;;17.80;16.52;;;19.50;99.90;;;;;;4992761;28;20117;-83
2022/08/21 09:52:46;;;;;;;13.23;12.43;;;19.90;99.90;;;;;;4992280;28;20022;-84
2022/08/21 09:58:15;;;;;;;13.10;12.20;;;19.70;99.90;;;;;;4979502;28;20057;-83
2022/08/21 10:00:43;;;;;;;16.35;15.15;;;20.10;99.90;;;;;;4991716;28;20034;-83
2022/08/21 10:03:16;;;;;;;32.85;30.65;;;20.60;99.90;;;;;;4992359;28;20094;-83
2022/08/21 10:06:05;;;;;;;20.65;19.63;;;20.10;99.90;;;;;;4976857;28;20038;-83
2022/08/21 10:08:32;;;;;;;16.35;15.20;;;20.00;99.90;;;;;;4991817;28;20034;-83
2022/08/21 10:11:11;;;;;;;17.38;16.38;;;20.40;99.90;;;;;;4987354;28;20018;-83
2022/08/21 10:13:47;;;;;;;14.20;13.05;;;19.80;99.90;;;;;;4979789;28;20038;-83
2022/08/21 10:16:28;;;;;;;16.15;15.02;;;20.40;99.90;;;;;;4992174;28;20040;-83
2022/08/21 10:19:03;;;;;;;14.55;13.55;;;20.60;99.90;;;;;;4988199;28;20030;-83
2022/08/21 10:22:02;;;;;;;19.35;18.15;;;20.70;99.90;;;;;;4992329;28;20109;-83
2022/08/21 10:24:45;;;;;;;12.95;12.15;;;20.70;99.90;;;;;;4989747;28;20057;-83
2022/08/21 10:27:29;;;;;;;16.05;14.80;;;22.10;99.80;;;;;;4991743;28;20088;-84
2022/08/21 10:30:03;;;;;;;13.55;12.75;;;23.10;77.00;;;;;;4990642;28;20061;-83
2022/08/21 10:32:29;;;;;;;15.40;14.43;;;23.50;63.40;;;;;;4989402;28;20038;-84
2022/08/21 10:35:24;;;;;;;14.18;13.30;;;24.00;64.00;;;;;;4994572;28;20014;-84
2022/08/21 10:37:52;;;;;;;21.38;20.27;;;23.90;61.10;;;;;;4992502;28;20496;-83
2022/08/21 10:40:27;;;;;;;25.98;24.77;;;24.50;58.00;;;;;;4974154;28;20494;-83
2022/08/21 10:43:16;;;;;;;13.50;12.55;;;24.60;56.80;;;;;;4994639;28;20749;-83
2022/08/21 10:45:54;;;;;;;14.10;13.07;;;24.40;66.50;;;;;;4988230;28;20030;-83
2022/08/21 10:48:31;;;;;;;22.48;21.48;;;24.60;65.60;;;;;;4990579;28;20356;-83
2022/08/21 10:51:05;;;;;;;14.15;13.07;;;24.60;49.10;;;;;;4991617;28;20033;-83
2022/08/21 10:53:40;;;;;;;27.58;26.25;;;24.80;46.60;;;;;;4990974;28;20068;-83
2022/08/21 10:56:30;;;;;;;38.13;36.45;;;25.50;48.50;;;;;;4985787;28;20042;-83
2022/08/21 10:59:04;;;;;;;;;;;25.20;47.10;;;;;;4973470;28;20022;-83
2022/08/21 11:02:00;;;;;;;20.98;19.70;;;26.70;42.70;;;;;;4990358;28;19989;-83
2022/08/21 11:04:39;;;;;;;21.67;20.73;;;26.80;43.50;;;;;;4990083;28;20080;-83
2022/08/21 11:07:16;;;;;;;26.25;24.95;;;27.40;42.70;;;;;;4971191;28;20478;-83
2022/08/21 11:09:45;;;;;;;33.78;32.38;;;26.90;41.60;;;;;;4991421;28;20045;-83
2022/08/21 11:12:42;;;;;;;19.60;18.25;;;26.80;43.10;;;;;;4973564;28;20572;-82
2022/08/21 11:15:29;;;;;;;34.22;32.60;;;27.00;41.50;;;;;;4987577;28;20030;-83
2022/08/21 11:18:30;;;;;;;32.60;31.10;;;27.10;41.80;;;;;;4973433;28;20445;-84
2022/08/21 11:21:03;;;;;;;17.38;16.58;;;26.80;46.70;;;;;;4991286;28;20029;-83
2022/08/21 11:23:41;;;;;;;42.03;40.00;;;28.20;40.00;;;;;;4990135;28;20529;-83
2022/08/21 11:26:17;;;;;;;25.65;24.45;;;27.20;39.30;;;;;;4973857;28;20228;-83
2022/08/21 11:28:52;;;;;;;47.13;45.22;;;27.40;39.00;;;;;;4987898;28;20115;-83
2022/08/21 11:31:33;;;;;;;26.80;25.55;;;27.40;42.80;;;;;;4989984;28;20645;-84
2022/08/21 11:34:24;;;;;;;41.33;39.60;;;28.70;35.10;;;;;;4975656;28;20063;-83
2022/08/21 11:37:16;;;;;;;27.48;26.23;;;29.60;35.70;;;;;;4988840;28;20058;-83
2022/08/21 11:40:01;;;;;;;45.15;43.25;;;28.30;37.50;;;;;;4969896;28;20618;-83
2022/08/21 11:42:42;;;;;;;52.63;50.55;;;28.10;44.50;;;;;;4989170;28;20038;-83
2022/08/21 11:45:20;;;;;;;28.02;26.83;;;28.30;41.20;;;;;;4969768;28;20040;-83
2022/08/21 11:47:48;;;;;;;51.88;49.75;;;28.20;37.40;;;;;;4989898;28;20042;-83
2022/08/21 11:50:23;;;;;;;71.00;68.40;;;27.50;41.20;;;;;;4988659;28;20041;-83
2022/08/21 11:53:06;;;;;;;57.90;55.53;;;28.10;41.50;;;;;;4989646;28;20528;-83
2022/08/21 11:55:45;;;;;;;25.95;24.75;;;29.30;36.90;;;;;;4972632;28;20030;-83
2022/08/21 11:58:22;;;;;;;24.58;23.48;;;29.80;34.30;;;;;;4958571;28;20030;-83
2022/08/21 12:00:57;;;;;;;34.63;32.92;;;30.70;31.60;;;;;;4989884;28;20034;-83
2022/08/21 12:03:32;;;;;;;58.20;55.85;;;30.90;28.90;;;;;;4971199;28;20038;-83
2022/08/21 12:06:01;;;;;;;31.90;30.63;;;30.80;32.20;;;;;;4972917;28;20073;-83
2022/08/21 12:08:49;;;;;;;55.75;53.50;;;30.40;29.40;;;;;;4990044;28;20041;-83
2022/08/21 12:11:18;;;;;;;41.50;39.53;;;29.40;33.60;;;;;;4988337;28;20097;-83
2022/08/21 12:14:13;;;;;;;34.60;32.53;;;30.20;31.90;;;;;;4988554;28;20038;-83
2022/08/21 12:16:44;;;;;;;39.97;38.38;;;32.00;29.50;;;;;;4994470;28;20038;-83
2022/08/21 12:19:30;;;;;;;52.58;50.42;;;31.40;30.40;;;;;;4971868;28;20027;-83
2022/08/21 12:21:59;;;;;;;55.97;53.65;;;30.80;31.10;;;;;;4990193;28;20057;-84
2022/08/21 12:24:27;;;;;;;57.47;54.83;;;30.50;32.00;;;;;;4988387;28;20034;-84